Time;durP1;ratioP1;P1;durP2;ratioP2;P2;SDS_P1;SDS_P2;PMS_P1;PMS_P2;Temp;Humidity;BMP_temperature;BMP_pressure;BME280_temperature;BME280_humidity;BME280_pressure;Samples;Min_cycle;Max_cycle;Signal;HPM_P1;HPM_P2
2022/12/27 00:00:34;;;;;;;13.27;2.43;;;5.90;99.90;;;;;;4926468;28;36893;-79
2022/12/27 00:03:00;;;;;;;14.33;3.37;;;5.80;99.90;;;;;;4936745;28;37085;-78
2022/12/27 00:05:26;;;;;;;16.30;2.37;;;5.80;99.90;;;;;;4947347;28;39560;-79
2022/12/27 00:07:52;;;;;;;17.70;3.87;;;5.80;99.90;;;;;;4949846;28;37925;-79
2022/12/27 00:10:21;;;;;;;19.07;2.23;;;5.70;99.90;;;;;;4940848;28;38067;-77
2022/12/27 00:12:47;;;;;;;16.83;3.27;;;5.80;99.90;;;;;;4948212;28;37239;-79
2022/12/27 00:15:13;;;;;;;12.83;2.27;;;5.80;99.90;;;;;;4927769;28;39051;-79
2022/12/27 00:17:39;;;;;;;13.30;2.20;;;5.80;99.90;;;;;;4929719;28;38667;-82
2022/12/27 00:20:06;;;;;;;12.20;2.40;;;5.80;99.90;;;;;;4929854;28;37131;-78
2022/12/27 00:22:32;;;;;;;14.73;2.30;;;5.80;99.90;;;;;;4945950;28;36400;-82
2022/12/27 00:24:58;;;;;;;17.40;2.10;;;5.90;99.90;;;;;;4922926;29;37807;-80
2022/12/27 00:27:24;;;;;;;13.13;2.30;;;6.00;99.90;;;;;;4941786;28;37252;-80
2022/12/27 00:29:50;;;;;;;13.97;2.23;;;6.00;99.90;;;;;;4947538;28;39330;-80
2022/12/27 00:32:16;;;;;;;9.53;2.17;;;6.10;99.90;;;;;;4945478;28;38236;-80
2022/12/27 00:34:42;;;;;;;16.50;2.70;;;6.10;99.90;;;;;;4940174;28;38927;-79
2022/12/27 00:37:08;;;;;;;12.23;2.40;;;6.10;99.90;;;;;;4942051;28;37331;-79
2022/12/27 00:39:34;;;;;;;19.33;2.47;;;6.20;99.90;;;;;;4928785;28;38179;-79
2022/12/27 00:42:00;;;;;;;12.23;2.67;;;6.20;99.90;;;;;;4927922;28;37001;-81
2022/12/27 00:44:26;;;;;;;16.07;3.33;;;6.20;99.90;;;;;;4943249;28;39179;-78
2022/12/27 00:46:52;;;;;;;15.07;2.40;;;6.20;99.90;;;;;;4935589;28;38414;-78
2022/12/27 00:49:18;;;;;;;10.17;2.63;;;6.20;99.90;;;;;;4945841;28;38167;-80
2022/12/27 00:51:44;;;;;;;18.03;3.80;;;6.20;99.90;;;;;;4940038;28;37977;-80
2022/12/27 00:54:10;;;;;;;11.67;2.17;;;6.40;99.90;;;;;;4927583;28;38985;-80
2022/12/27 00:56:36;;;;;;;15.30;2.50;;;6.40;99.90;;;;;;4945885;28;38187;-79
2022/12/27 00:59:03;;;;;;;26.13;3.00;;;6.40;99.90;;;;;;4926491;28;37363;-77
2022/12/27 01:01:33;;;;;;;11.37;2.83;;;6.30;99.90;;;;;;4942642;28;49565;-80
2022/12/27 01:03:59;;;;;;;15.67;2.37;;;6.30;99.90;;;;;;4926829;28;37552;-81
2022/12/27 01:06:27;;;;;;;16.93;2.60;;;6.30;99.90;;;;;;4942947;28;38934;-80
2022/12/27 01:08:54;;;;;;;22.10;3.20;;;6.30;99.90;;;;;;4925744;28;37228;-78
2022/12/27 01:11:21;;;;;;;14.23;2.70;;;6.30;99.90;;;;;;4923291;28;37557;-79
2022/12/27 01:13:47;;;;;;;15.87;4.03;;;6.30;99.90;;;;;;4921048;28;39065;-77
2022/12/27 01:16:20;;;;;;;14.87;2.43;;;6.30;99.90;;;;;;4938854;28;38349;-78
2022/12/27 01:18:47;;;;;;;19.10;2.83;;;6.20;99.90;;;;;;4937471;28;38563;-77
2022/12/27 01:21:15;;;;;;;15.83;3.23;;;6.10;99.90;;;;;;4947863;28;37959;-78
2022/12/27 01:23:42;;;;;;;17.87;3.37;;;6.10;99.90;;;;;;4948115;28;37440;-79
2022/12/27 01:26:12;;;;;;;18.50;3.30;;;6.10;99.90;;;;;;4940964;28;38534;-80
2022/12/27 01:28:38;;;;;;;25.60;3.50;;;6.20;99.90;;;;;;4943456;28;38143;-80
2022/12/27 01:31:06;;;;;;;17.20;3.20;;;6.20;99.90;;;;;;4948642;28;37403;-79
2022/12/27 01:33:33;;;;;;;14.53;3.23;;;6.20;99.90;;;;;;4956569;28;47928;-79
2022/12/27 01:36:11;;;;;;;16.53;2.90;;;6.10;99.90;;;;;;4933075;28;38021;-80
2022/12/27 01:38:38;;;;;;;17.17;2.70;;;6.00;99.90;;;;;;4941298;28;48829;-78
2022/12/27 01:42:50;;;;;;;19.57;3.57;;;6.00;99.90;;;;;;4948704;28;37600;-80
2022/12/27 01:43:50;;;;;;;20.10;3.47;;;6.00;99.90;;;;;;4946654;28;48414;-78
2022/12/27 01:46:17;;;;;;;11.87;3.37;;;6.10;99.90;;;;;;4944034;28;37061;-78
2022/12/27 01:48:43;;;;;;;16.70;3.13;;;6.00;99.90;;;;;;4933724;28;35187;-79
2022/12/27 01:51:10;;;;;;;20.63;4.03;;;6.00;99.90;;;;;;4930752;28;37121;-79
2022/12/27 01:53:43;;;;;;;19.20;4.67;;;6.10;99.90;;;;;;4934313;28;37572;-81
2022/12/27 01:56:24;;;;;;;17.30;4.50;;;6.00;99.90;;;;;;4930740;28;37414;-79
2022/12/27 01:59:01;;;;;;;26.13;3.83;;;6.10;99.90;;;;;;4948766;28;38665;-80
2022/12/27 02:04:12;;;;;;;19.43;3.87;;;6.00;99.90;;;;;;4907554;28;20051;-79
2022/12/27 02:06:39;;;;;;;18.60;4.30;;;6.00;99.90;;;;;;4914559;29;47228;-79
2022/12/27 02:09:56;;;;;;;17.07;3.77;;;6.00;99.90;;;;;;4933177;28;37849;-78
2022/12/27 02:12:25;;;;;;;15.23;3.10;;;6.00;99.90;;;;;;4892862;29;47084;-79
2022/12/27 02:14:52;;;;;;;19.87;3.90;;;6.00;99.90;;;;;;4931733;28;38924;-79
2022/12/27 02:17:27;;;;;;;15.07;3.27;;;6.00;99.90;;;;;;4936334;28;38608;-79
2022/12/27 02:20:14;;;;;;;15.93;3.30;;;6.10;99.90;;;;;;4932125;28;37984;-79
2022/12/27 02:26:40;;;;;;;20.73;3.20;;;6.00;99.90;;;;;;4920691;28;49087;-79
2022/12/27 02:29:34;;;;;;;14.00;3.00;;;6.00;99.90;;;;;;4868540;29;47200;-79
2022/12/27 02:32:19;;;;;;;15.80;3.90;;;6.00;99.90;;;;;;4926269;28;37943;-79
2022/12/27 02:35:19;;;;;;;20.53;3.20;;;6.00;99.90;;;;;;4925031;28;48424;-79
2022/12/27 02:37:51;;;;;;;19.50;3.00;;;6.00;99.90;;;;;;4892666;28;46479;-79
2022/12/27 02:55:11;;;;;;;16.87;2.57;;;5.80;99.90;;;;;;4935495;28;48967;-79
2022/12/27 02:57:58;;;;;;;25.30;3.50;;;5.90;99.90;;;;;;4929594;28;48658;-79
2022/12/27 03:03:39;;;;;;;22.00;3.47;;;5.90;99.90;;;;;;4932887;28;39941;-78
2022/12/27 03:06:47;;;;;;;17.57;2.47;;;5.90;99.90;;;;;;4896981;28;38487;-78
2022/12/27 03:18:17;;;;;;;16.90;3.60;;;6.00;99.90;;;;;;4926724;28;48942;-80
2022/12/27 03:26:16;;;;;;;23.30;3.53;;;6.10;99.90;;;;;;4929793;28;38791;-80
2022/12/27 03:34:34;;;;;;;21.30;3.27;;;6.10;99.90;;;;;;4932558;28;39535;-79
2022/12/27 03:43:39;;;;;;;13.40;3.30;;;5.80;99.90;;;;;;4925425;28;49772;-79
2022/12/27 03:46:32;;;;;;;18.57;3.47;;;5.70;99.90;;;;;;4914405;29;37430;-78
2022/12/27 03:49:18;;;;;;;19.47;3.53;;;5.70;99.90;;;;;;4927997;28;48733;-80
2022/12/27 03:52:13;;;;;;;15.23;3.13;;;5.70;99.90;;;;;;4912036;29;46974;-79
2022/12/27 03:54:40;;;;;;;15.33;2.83;;;5.80;99.90;;;;;;4929487;28;49079;-79
2022/12/27 03:57:16;;;;;;;13.20;3.00;;;5.80;99.90;;;;;;4910201;28;38085;-78
2022/12/27 03:59:43;;;;;;;19.33;3.30;;;5.70;99.90;;;;;;4929029;28;38540;-79
2022/12/27 04:02:09;;;;;;;18.53;3.43;;;5.70;99.90;;;;;;4926085;28;37971;-79
2022/12/27 04:04:35;;;;;;;12.73;3.17;;;5.70;99.90;;;;;;4928426;28;36793;-79
2022/12/27 04:07:02;;;;;;;20.50;3.47;;;5.70;99.90;;;;;;4929568;28;39355;-80
2022/12/27 04:36:57;;;;;;;19.60;3.03;;;5.60;99.90;;;;;;4926307;28;37264;-80
2022/12/27 04:39:23;;;;;;;14.80;3.00;;;5.60;99.90;;;;;;4925162;28;38299;-79
2022/12/27 04:55:44;;;;;;;11.67;2.27;;;5.70;99.90;;;;;;4926620;28;49353;-79
2022/12/27 04:58:10;;;;;;;15.93;2.57;;;5.60;99.90;;;;;;4906900;29;36101;-78
2022/12/27 05:03:22;;;;;;;11.87;2.20;;;5.70;99.90;;;;;;4926451;28;39132;-80
2022/12/27 05:05:50;;;;;;;16.20;2.93;;;5.70;99.90;;;;;;4929322;28;36782;-79
2022/12/27 05:14:01;;;;;;;12.37;2.10;;;5.60;99.90;;;;;;4928393;28;49073;-79
2022/12/27 05:16:26;;;;;;;15.07;2.73;;;5.60;99.90;;;;;;4923141;28;39049;-79
2022/12/27 05:18:53;;;;;;;19.33;2.20;;;5.60;99.90;;;;;;4933401;28;37166;-79
2022/12/27 05:21:19;;;;;;;20.40;3.23;;;5.60;99.90;;;;;;4927970;28;38529;-79
2022/12/27 05:26:31;;;;;;;19.80;3.00;;;5.50;99.90;;;;;;4929606;28;48057;-80
2022/12/27 05:28:58;;;;;;;16.10;2.57;;;5.50;99.90;;;;;;4911220;29;36730;-80
2022/12/27 05:31:26;;;;;;;17.50;2.37;;;5.50;99.90;;;;;;4912786;29;38876;-79
2022/12/27 05:33:52;;;;;;;30.33;3.30;;;5.40;99.90;;;;;;4927713;28;38262;-80
2022/12/27 05:36:19;;;;;;;16.80;2.50;;;5.40;99.90;;;;;;4911026;29;37080;-79
2022/12/27 05:38:45;;;;;;;19.90;2.57;;;5.20;99.90;;;;;;4911647;28;36849;-79
2022/12/27 05:41:12;;;;;;;18.57;2.70;;;5.20;99.90;;;;;;4910492;28;37505;-79
2022/12/27 05:43:39;;;;;;;17.63;2.60;;;5.20;99.90;;;;;;4922506;28;39599;-80
2022/12/27 05:46:08;;;;;;;14.93;3.00;;;5.20;99.90;;;;;;4934187;28;36884;-79
2022/12/27 05:48:34;;;;;;;20.17;2.60;;;5.10;99.90;;;;;;4923447;28;47989;-78
2022/12/27 05:51:09;;;;;;;18.17;2.50;;;5.20;99.90;;;;;;4902073;29;37928;-78
2022/12/27 05:53:36;;;;;;;13.27;2.40;;;5.10;99.90;;;;;;4931126;28;47148;-80
2022/12/27 05:56:02;;;;;;;20.00;3.13;;;5.00;99.90;;;;;;4929360;29;38065;-79
2022/12/27 05:58:29;;;;;;;20.67;2.90;;;5.00;99.90;;;;;;4927472;28;48888;-79
2022/12/27 06:00:55;;;;;;;18.50;3.03;;;4.90;99.90;;;;;;4923866;28;37786;-80
2022/12/27 06:03:22;;;;;;;27.17;2.60;;;4.90;99.90;;;;;;4921491;28;38500;-80
2022/12/27 06:05:48;;;;;;;12.13;1.97;;;4.80;99.90;;;;;;4906849;28;36768;-80
2022/12/27 06:08:14;;;;;;;10.63;2.20;;;4.80;99.90;;;;;;4926312;28;37050;-79
2022/12/27 06:10:41;;;;;;;17.47;3.43;;;4.70;99.90;;;;;;4929087;28;38367;-77
2022/12/27 06:13:07;;;;;;;14.97;2.67;;;4.70;99.90;;;;;;4933341;28;38479;-78
2022/12/27 06:15:33;;;;;;;18.80;2.93;;;4.70;99.90;;;;;;4925451;28;36985;-79
2022/12/27 06:17:59;;;;;;;19.40;2.83;;;4.70;99.90;;;;;;4926319;28;36580;-79
2022/12/27 06:20:25;;;;;;;15.27;2.90;;;4.70;99.90;;;;;;4921941;28;39481;-79
2022/12/27 06:22:51;;;;;;;21.07;4.60;;;4.70;99.90;;;;;;4912899;29;37610;-80
2022/12/27 06:25:18;;;;;;;32.10;3.57;;;4.70;99.90;;;;;;4930925;28;38820;-79
2022/12/27 06:27:44;;;;;;;20.57;3.80;;;4.70;99.90;;;;;;4947719;28;36538;-80
2022/12/27 06:30:11;;;;;;;15.57;3.07;;;4.80;99.90;;;;;;4941177;28;37365;-80
2022/12/27 06:32:37;;;;;;;23.57;5.17;;;4.80;99.90;;;;;;4925149;28;37721;-79
2022/12/27 06:35:04;;;;;;;18.20;3.33;;;4.80;99.90;;;;;;4932382;29;38052;-78
2022/12/27 06:37:30;;;;;;;20.43;4.40;;;4.80;99.90;;;;;;4931771;29;36711;-79
2022/12/27 06:39:57;;;;;;;20.17;3.97;;;4.80;99.90;;;;;;4914615;29;40057;-79
2022/12/27 06:42:23;;;;;;;19.00;3.20;;;4.90;99.90;;;;;;4935588;28;37183;-79
2022/12/27 06:44:49;;;;;;;20.80;3.60;;;4.90;99.90;;;;;;4929852;28;36650;-80
2022/12/27 06:47:15;;;;;;;19.47;3.30;;;5.00;99.90;;;;;;4928563;28;36471;-79
2022/12/27 06:49:41;;;;;;;14.67;3.23;;;5.00;99.90;;;;;;4927132;28;38694;-79
2022/12/27 06:52:07;;;;;;;29.23;4.17;;;4.90;99.90;;;;;;4930597;28;37906;-79
2022/12/27 06:54:33;;;;;;;22.83;4.87;;;5.00;99.90;;;;;;4933635;28;37984;-79
2022/12/27 06:56:59;;;;;;;19.17;4.73;;;5.00;99.90;;;;;;4930355;28;36399;-79
2022/12/27 06:59:25;;;;;;;28.70;4.27;;;5.00;99.90;;;;;;4925689;28;40301;-79
2022/12/27 07:01:51;;;;;;;21.97;3.90;;;5.00;99.90;;;;;;4921600;28;38546;-79
2022/12/27 07:04:17;;;;;;;18.37;3.30;;;5.00;99.90;;;;;;4923506;28;38205;-79
2022/12/27 07:06:43;;;;;;;19.37;3.83;;;5.10;99.90;;;;;;4923515;28;35791;-80
2022/12/27 07:09:09;;;;;;;20.97;4.43;;;5.10;99.90;;;;;;4911882;28;37792;-80
2022/12/27 07:11:36;;;;;;;15.93;3.60;;;5.10;99.90;;;;;;4926992;28;37246;-79
2022/12/27 07:14:02;;;;;;;24.90;4.17;;;5.10;99.90;;;;;;4925271;28;37663;-79
2022/12/27 07:16:29;;;;;;;12.93;2.73;;;5.00;99.90;;;;;;4926838;28;37488;-80
2022/12/27 07:18:57;;;;;;;22.23;3.40;;;4.90;99.90;;;;;;4909542;29;39090;-80
2022/12/27 07:21:26;;;;;;;20.77;3.13;;;5.00;99.90;;;;;;4926829;28;38301;-80
2022/12/27 07:23:52;;;;;;;20.17;3.47;;;5.00;99.90;;;;;;4911533;29;37162;-79
2022/12/27 07:26:20;;;;;;;15.77;3.50;;;5.00;99.90;;;;;;4922065;28;37091;-79
2022/12/27 07:28:47;;;;;;;20.40;3.73;;;4.90;99.90;;;;;;4926723;28;39058;-80
2022/12/27 07:31:18;;;;;;;16.23;3.57;;;4.80;99.90;;;;;;4927028;28;39262;-79
2022/12/27 07:33:45;;;;;;;17.57;3.83;;;4.80;99.90;;;;;;4905524;29;37182;-79
2022/12/27 07:36:23;;;;;;;19.83;3.90;;;4.70;99.90;;;;;;4931952;28;37940;-79
2022/12/27 07:38:49;;;;;;;25.27;4.03;;;4.60;99.90;;;;;;4913898;29;39059;-79
2022/12/27 07:41:16;;;;;;;20.90;5.43;;;4.60;99.90;;;;;;4912924;28;37522;-79
2022/12/27 07:43:43;;;;;;;15.07;4.57;;;4.70;99.90;;;;;;4929587;28;37763;-79
2022/12/27 07:46:18;;;;;;;23.60;5.77;;;4.80;99.90;;;;;;4925938;28;36198;-79
2022/12/27 07:48:45;;;;;;;17.17;5.53;;;4.80;99.90;;;;;;4928017;28;39105;-79
2022/12/27 07:51:11;;;;;;;14.33;4.57;;;4.70;99.90;;;;;;4913255;28;38128;-79
2022/12/27 07:53:38;;;;;;;19.40;6.00;;;4.70;99.90;;;;;;4930279;28;38568;-78
2022/12/27 07:56:10;;;;;;;23.17;6.60;;;4.80;99.90;;;;;;4929995;28;37453;-79
2022/12/27 07:58:38;;;;;;;21.50;4.78;;;4.80;99.90;;;;;;4929908;28;39872;-81
2022/12/27 08:01:05;;;;;;;15.27;4.33;;;4.80;99.90;;;;;;4923999;28;39388;-80
2022/12/27 08:03:37;;;;;;;19.43;5.27;;;4.80;99.90;;;;;;4921373;28;36915;-81
2022/12/27 08:06:04;;;;;;;15.50;4.95;;;4.70;99.90;;;;;;4909107;29;35851;-81
2022/12/27 08:08:38;;;;;;;9.63;5.00;;;4.70;99.90;;;;;;4927320;28;48102;-81
2022/12/27 08:11:04;;;;;;;20.03;6.40;;;4.60;99.90;;;;;;4906030;28;37319;-80
2022/12/27 08:13:30;;;;;;;22.77;5.57;;;4.60;99.90;;;;;;4927908;28;39374;-81
2022/12/27 08:15:57;;;;;;;12.03;5.00;;;4.50;99.90;;;;;;4919513;28;35672;-80
2022/12/27 08:18:23;;;;;;;13.67;4.10;;;4.50;99.90;;;;;;4909440;29;38582;-81
2022/12/27 08:20:50;;;;;;;24.80;4.97;;;4.60;99.90;;;;;;4925503;28;38313;-82
2022/12/27 08:23:16;;;;;;;18.40;5.10;;;4.60;99.90;;;;;;4924756;28;37370;-82
2022/12/27 08:25:42;;;;;;;18.20;5.43;;;4.60;99.90;;;;;;4931618;28;37374;-81
2022/12/27 08:28:11;;;;;;;18.20;5.03;;;4.60;99.90;;;;;;4923276;28;38970;-81
2022/12/27 08:30:39;;;;;;;17.77;6.13;;;4.50;99.90;;;;;;4925236;28;37345;-82
2022/12/27 08:33:05;;;;;;;19.60;6.47;;;4.50;99.90;;;;;;4906941;29;36352;-81
2022/12/27 08:35:31;;;;;;;23.93;7.47;;;4.40;99.90;;;;;;4927687;28;37136;-82
2022/12/27 08:38:00;;;;;;;18.70;4.67;;;4.50;99.90;;;;;;4918092;29;37535;-83
2022/12/27 08:40:26;;;;;;;14.83;4.73;;;4.50;99.90;;;;;;4907251;28;37429;-78
2022/12/27 08:42:52;;;;;;;16.13;4.10;;;4.50;99.90;;;;;;4915242;28;38048;-82
2022/12/27 08:45:18;;;;;;;16.33;4.20;;;4.50;99.90;;;;;;4936926;28;37420;-84
2022/12/27 08:47:50;;;;;;;16.43;5.07;;;4.50;99.90;;;;;;4948656;28;40334;-83
2022/12/27 08:50:16;;;;;;;21.10;5.10;;;4.60;99.90;;;;;;4933134;28;37783;-83
2022/12/27 08:52:42;;;;;;;22.83;5.20;;;4.60;99.90;;;;;;4931011;29;36923;-83
2022/12/27 08:55:09;;;;;;;18.70;5.00;;;4.70;99.90;;;;;;4938965;28;37489;-83
2022/12/27 08:57:35;;;;;;;16.83;4.63;;;4.70;99.90;;;;;;4949430;28;37944;-84
2022/12/27 09:00:02;;;;;;;24.70;5.40;;;4.80;99.90;;;;;;4937223;28;37998;-83
2022/12/27 09:02:28;;;;;;;23.00;5.43;;;4.80;99.90;;;;;;4925796;28;38356;-81
2022/12/27 09:04:54;;;;;;;15.27;5.90;;;4.80;99.90;;;;;;4927138;28;36489;-82
2022/12/27 09:07:20;;;;;;;27.43;6.80;;;4.80;99.90;;;;;;4923639;28;39950;-79
2022/12/27 09:09:46;;;;;;;26.40;7.33;;;4.80;99.90;;;;;;4927660;28;41948;-84
2022/12/27 09:12:12;;;;;;;19.90;6.67;;;4.80;99.90;;;;;;4928155;28;38082;-81
2022/12/27 09:14:38;;;;;;;18.10;6.27;;;4.90;99.90;;;;;;4928916;28;37063;-82
2022/12/27 09:17:07;;;;;;;19.03;6.47;;;4.90;99.90;;;;;;4902985;28;39089;-80
2022/12/27 09:19:34;;;;;;;15.67;5.50;;;5.00;99.90;;;;;;4914063;28;39288;-82
2022/12/27 09:22:01;;;;;;;24.37;6.47;;;5.00;99.90;;;;;;4927358;28;38727;-82
2022/12/27 09:24:27;;;;;;;18.97;5.73;;;5.10;99.90;;;;;;4928374;28;37186;-82
2022/12/27 09:26:53;;;;;;;16.37;5.77;;;5.20;99.90;;;;;;4924250;28;37403;-81
2022/12/27 09:29:19;;;;;;;18.97;6.50;;;5.20;99.90;;;;;;4929904;28;36878;-83
2022/12/27 09:31:45;;;;;;;16.67;6.13;;;5.30;99.90;;;;;;4950723;28;36825;-83
2022/12/27 09:34:12;;;;;;;15.93;5.80;;;5.30;99.90;;;;;;4941953;28;38665;-83
2022/12/27 09:36:45;;;;;;;26.77;6.33;;;5.30;99.90;;;;;;4934538;28;37637;-83
2022/12/27 09:39:12;;;;;;;21.03;5.80;;;5.40;99.90;;;;;;4932873;28;36934;-81
2022/12/27 09:42:25;;;;;;;15.00;6.43;;;5.40;99.90;;;;;;4913381;28;36927;-82
2022/12/27 09:45:15;;;;;;;17.70;6.55;;;5.40;99.90;;;;;;4938425;28;48760;-81
2022/12/27 09:47:52;;;;;;;18.83;7.67;;;5.50;99.90;;;;;;4920419;28;46869;-82
2022/12/27 09:53:03;;;;;;;15.23;6.40;;;5.50;99.90;;;;;;4930262;28;20046;-80
2022/12/27 09:55:48;;;;;;;18.37;6.90;;;5.60;99.90;;;;;;4929231;28;46863;-80
2022/12/27 09:58:33;;;;;;;26.93;6.60;;;5.60;99.90;;;;;;4925752;28;40125;-80
2022/12/27 10:01:01;;;;;;;25.67;7.73;;;5.70;99.90;;;;;;4928941;28;39004;-80
2022/12/27 10:03:29;;;;;;;23.33;7.10;;;5.70;99.90;;;;;;4923389;28;40447;-80
2022/12/27 10:06:21;;;;;;;17.30;7.23;;;5.70;99.90;;;;;;4939127;28;37669;-79
2022/12/27 10:09:10;;;;;;;20.30;6.93;;;5.80;99.90;;;;;;4922994;28;46700;-80
2022/12/27 10:11:52;;;;;;;21.40;7.50;;;5.90;99.90;;;;;;4945979;28;48243;-80
2022/12/27 10:14:26;;;;;;;18.07;6.67;;;6.00;99.90;;;;;;4938540;28;37692;-80
2022/12/27 10:17:01;;;;;;;19.47;8.23;;;6.10;99.90;;;;;;4949952;28;37367;-80
2022/12/27 10:19:45;;;;;;;19.20;7.13;;;6.10;99.90;;;;;;4937169;28;39203;-81
2022/12/27 10:22:56;;;;;;;18.30;8.00;;;6.30;99.90;;;;;;4931578;28;36964;-81
2022/12/27 10:25:24;;;;;;;19.60;8.10;;;6.40;99.90;;;;;;4922494;28;37167;-81
2022/12/27 10:27:57;;;;;;;19.43;7.53;;;6.40;99.90;;;;;;4950486;28;37051;-80
2022/12/27 10:30:23;;;;;;;18.40;8.00;;;6.30;99.90;;;;;;4953528;28;39114;-81
2022/12/27 10:32:50;;;;;;;18.93;8.23;;;6.20;99.90;;;;;;4953768;28;38801;-80
2022/12/27 10:35:19;;;;;;;21.07;7.73;;;6.20;99.90;;;;;;4951977;28;36490;-81
2022/12/27 10:37:46;;;;;;;22.07;8.60;;;6.10;99.90;;;;;;4949040;28;36629;-80
2022/12/27 10:40:20;;;;;;;15.53;7.93;;;6.10;99.90;;;;;;4952893;28;39964;-81
2022/12/27 10:43:00;;;;;;;22.43;8.37;;;6.00;99.90;;;;;;4953035;28;38361;-81
2022/12/27 10:45:32;;;;;;;13.30;6.90;;;6.00;99.90;;;;;;4948874;28;38466;-81
2022/12/27 10:48:15;;;;;;;15.38;7.63;;;6.00;99.90;;;;;;4931540;28;37871;-81
2022/12/27 10:50:48;;;;;;;18.83;8.87;;;6.00;99.90;;;;;;4929082;28;47165;-81
2022/12/27 10:53:29;;;;;;;;;;;6.00;99.90;;;;;;4952373;28;38547;-81
2022/12/27 10:56:33;;;;;;;17.77;7.90;;;6.00;99.90;;;;;;4930588;28;37063;-82
2022/12/27 10:59:15;;;;;;;;;;;6.00;99.90;;;;;;4919240;28;48502;-81
2022/12/27 11:01:45;;;;;;;25.63;9.75;;;6.10;99.90;;;;;;4936459;28;46957;-80
2022/12/27 11:04:16;;;;;;;18.53;8.23;;;6.10;99.90;;;;;;4953432;28;39231;-81
2022/12/27 11:07:01;;;;;;;19.27;8.90;;;6.10;99.90;;;;;;4948538;28;38952;-81
2022/12/27 11:09:33;;;;;;;19.73;8.47;;;6.10;99.90;;;;;;4952198;28;37313;-81
2022/12/27 11:12:17;;;;;;;18.90;8.52;;;6.10;99.90;;;;;;4936724;28;39308;-79
2022/12/27 11:15:10;;;;;;;21.87;7.70;;;6.10;99.90;;;;;;4930845;28;47387;-80
2022/12/27 11:17:52;;;;;;;13.55;7.38;;;6.20;99.90;;;;;;4932721;28;47345;-80
2022/12/27 11:20:24;;;;;;;16.73;8.40;;;6.30;99.90;;;;;;4931200;28;36192;-81
2022/12/27 11:23:01;;;;;;;12.52;7.43;;;6.50;99.90;;;;;;4942926;28;39231;-80
2022/12/27 11:25:28;;;;;;;20.20;9.70;;;6.60;99.90;;;;;;4955828;28;38845;-80
2022/12/27 11:28:03;;;;;;;17.87;8.43;;;6.70;99.90;;;;;;4959779;28;36926;-80
2022/12/27 11:30:30;;;;;;;17.63;7.83;;;6.80;99.90;;;;;;4951461;28;46776;-80
2022/12/27 11:33:02;;;;;;;21.67;7.63;;;7.00;99.90;;;;;;4938555;28;37930;-80
2022/12/27 11:35:29;;;;;;;14.73;7.45;;;7.00;99.90;;;;;;4927641;28;46713;-80
2022/12/27 11:37:55;;;;;;;17.23;7.60;;;7.10;99.90;;;;;;4948900;28;37886;-81
2022/12/27 11:40:33;;;;;;;17.87;7.60;;;7.10;99.90;;;;;;4928702;28;39083;-80
2022/12/27 11:43:07;;;;;;;23.63;8.63;;;7.20;99.90;;;;;;4946049;28;38023;-79
2022/12/27 11:45:41;;;;;;;18.83;6.70;;;7.20;99.90;;;;;;4920655;28;48278;-80
2022/12/27 11:48:29;;;;;;;17.07;7.13;;;7.20;99.90;;;;;;4948621;28;37799;-80
2022/12/27 11:51:08;;;;;;;16.13;6.33;;;7.20;99.90;;;;;;4941132;28;37821;-79
2022/12/27 11:53:56;;;;;;;20.77;7.90;;;7.30;99.90;;;;;;4941685;28;47374;-79
2022/12/27 11:56:26;;;;;;;15.93;6.47;;;7.30;99.90;;;;;;4924599;28;39264;-80
2022/12/27 11:59:11;;;;;;;15.80;6.57;;;7.40;99.90;;;;;;4943348;28;38526;-79
2022/12/27 12:02:01;;;;;;;12.97;6.20;;;7.50;99.90;;;;;;4930040;28;46948;-79
2022/12/27 12:04:43;;;;;;;14.17;6.10;;;7.70;99.90;;;;;;4922903;28;40652;-80
2022/12/27 12:07:45;;;;;;;13.43;5.30;;;7.70;99.90;;;;;;4941334;28;39064;-79
2022/12/27 12:10:49;;;;;;;12.47;6.10;;;7.60;99.90;;;;;;4901651;28;38582;-80
2022/12/27 12:13:36;;;;;;;13.57;5.53;;;7.60;99.90;;;;;;4940412;28;36804;-79
2022/12/27 12:16:30;;;;;;;13.13;5.10;;;7.60;99.90;;;;;;4925385;28;39628;-80
2022/12/27 12:19:11;;;;;;;12.53;6.13;;;7.50;99.90;;;;;;4932707;28;47148;-79
2022/12/27 12:22:03;;;;;;;22.17;6.50;;;7.60;99.90;;;;;;4919553;28;48233;-80
2022/12/27 12:24:41;;;;;;;15.20;6.00;;;7.60;99.90;;;;;;4919567;28;48275;-80
2022/12/27 12:27:23;;;;;;;13.70;6.10;;;7.70;99.90;;;;;;4925000;28;37644;-79
2022/12/27 12:30:11;;;;;;;17.98;6.32;;;7.80;99.90;;;;;;4947599;28;39865;-79
2022/12/27 12:32:49;;;;;;;14.07;6.07;;;7.90;99.90;;;;;;4924704;28;46861;-79
2022/12/27 12:36:02;;;;;;;19.60;6.93;;;7.90;99.90;;;;;;4909735;28;37955;-79
2022/12/27 12:38:51;;;;;;;10.77;6.13;;;8.00;99.90;;;;;;4900109;28;39775;-79
2022/12/27 12:41:36;;;;;;;12.60;5.50;;;8.00;99.90;;;;;;4947140;28;20044;-80
2022/12/27 12:44:15;;;;;;;14.37;5.73;;;8.00;99.90;;;;;;4929720;28;37487;-79
2022/12/27 12:46:54;;;;;;;14.33;8.20;;;8.00;99.90;;;;;;4911866;28;38970;-79
2022/12/27 12:49:24;;;;;;;13.90;5.93;;;8.00;99.90;;;;;;4939247;28;39487;-79
2022/12/27 12:52:13;;;;;;;15.00;6.07;;;8.00;99.90;;;;;;4940897;28;38014;-80
2022/12/27 12:55:17;;;;;;;14.20;5.43;;;8.00;99.90;;;;;;4944169;28;45683;-78
2022/12/27 12:58:02;;;;;;;12.67;5.33;;;8.00;99.90;;;;;;4872166;29;48797;-80
2022/12/27 13:00:56;;;;;;;9.33;4.47;;;8.00;99.90;;;;;;4854618;29;46959;-79
2022/12/27 13:03:40;;;;;;;15.47;4.47;;;8.00;99.90;;;;;;4928192;28;38159;-80
2022/12/27 13:06:34;;;;;;;12.00;5.47;;;8.00;99.90;;;;;;4940587;28;38382;-80
2022/12/27 13:09:01;;;;;;;16.90;4.57;;;8.00;99.90;;;;;;4945393;28;36897;-79
2022/12/27 13:11:55;;;;;;;11.73;4.67;;;8.00;99.90;;;;;;4943699;28;47177;-81
2022/12/27 13:14:46;;;;;;;11.33;4.57;;;8.00;99.90;;;;;;4952644;28;39328;-80
2022/12/27 13:17:12;;;;;;;10.70;4.23;;;8.00;99.90;;;;;;4952477;28;40195;-80
2022/12/27 13:19:56;;;;;;;9.20;4.20;;;8.00;99.90;;;;;;4954476;28;37016;-80
2022/12/27 13:23:04;;;;;;;9.97;4.33;;;8.00;99.90;;;;;;4936139;28;40836;-79
2022/12/27 13:25:40;;;;;;;9.87;5.03;;;8.00;99.90;;;;;;4942968;28;48745;-79
2022/12/27 13:28:35;;;;;;;10.33;4.37;;;8.00;99.90;;;;;;4951594;28;38725;-79
2022/12/27 13:31:25;;;;;;;11.40;4.50;;;8.00;99.90;;;;;;4935024;28;38539;-79
2022/12/27 13:34:29;;;;;;;8.93;3.87;;;8.00;99.90;;;;;;4929375;28;47050;-80
2022/12/27 13:37:13;;;;;;;13.77;4.43;;;8.00;99.90;;;;;;4934512;28;48497;-80
2022/12/27 13:40:07;;;;;;;13.23;4.93;;;8.00;99.90;;;;;;4935474;28;47084;-80
2022/12/27 13:42:54;;;;;;;10.17;5.23;;;7.90;99.90;;;;;;4952920;28;48863;-80
2022/12/27 13:45:45;;;;;;;11.57;5.70;;;8.00;99.90;;;;;;4933619;28;40488;-81
2022/12/27 13:48:39;;;;;;;12.10;5.30;;;8.00;99.90;;;;;;4931532;28;39535;-80
2022/12/27 13:51:20;;;;;;;10.00;5.00;;;8.10;99.90;;;;;;4930717;28;36708;-80
2022/12/27 13:54:05;;;;;;;11.83;4.73;;;8.10;99.90;;;;;;4917152;28;47151;-79
2022/12/27 13:56:54;;;;;;;16.93;5.97;;;8.10;99.90;;;;;;4955860;28;47258;-80
2022/12/27 13:59:44;;;;;;;16.47;5.00;;;8.10;99.90;;;;;;4945663;28;38982;-79
2022/12/27 14:02:36;;;;;;;15.77;5.67;;;8.00;99.90;;;;;;4954092;28;37171;-81
2022/12/27 14:05:35;;;;;;;19.13;6.57;;;8.00;99.90;;;;;;4931295;28;39182;-80
2022/12/27 14:08:45;;;;;;;15.50;6.20;;;8.00;99.90;;;;;;4946911;28;48556;-79
2022/12/27 14:11:32;;;;;;;15.20;5.87;;;7.90;99.90;;;;;;4950556;28;47829;-80
2022/12/27 14:13:59;;;;;;;11.87;5.53;;;7.80;99.90;;;;;;4951385;28;37618;-81
2022/12/27 14:16:43;;;;;;;11.13;6.33;;;7.80;99.90;;;;;;4955881;28;37116;-80
2022/12/27 14:19:34;;;;;;;19.47;6.47;;;7.80;99.90;;;;;;4950643;28;38715;-80
2022/12/27 14:22:20;;;;;;;13.23;5.70;;;7.80;99.90;;;;;;4951676;28;39213;-80
2022/12/27 14:25:19;;;;;;;19.20;5.50;;;7.80;99.90;;;;;;4933033;28;47099;-80
2022/12/27 14:28:20;;;;;;;15.83;6.33;;;7.80;99.90;;;;;;4950057;28;47947;-80
2022/12/27 14:31:17;;;;;;;17.50;5.53;;;7.80;99.90;;;;;;4932215;28;46966;-80
2022/12/27 14:34:00;;;;;;;16.00;6.20;;;7.80;99.90;;;;;;4930414;28;47038;-80
2022/12/27 14:36:29;;;;;;;15.13;5.40;;;7.80;99.90;;;;;;4948405;28;38343;-80
2022/12/27 14:39:26;;;;;;;14.67;5.50;;;7.80;99.90;;;;;;4946687;28;37295;-80
2022/12/27 14:42:12;;;;;;;13.10;5.20;;;7.80;99.90;;;;;;4945284;28;49372;-80
2022/12/27 14:45:13;;;;;;;16.50;5.07;;;7.80;99.90;;;;;;4933336;28;47275;-80
2022/12/27 14:48:10;;;;;;;16.27;5.13;;;7.80;99.90;;;;;;4917768;28;47101;-79
2022/12/27 14:50:36;;;;;;;13.13;5.43;;;7.80;99.90;;;;;;4930190;28;46865;-80
2022/12/27 14:53:20;;;;;;;21.20;5.97;;;7.90;99.90;;;;;;4941263;28;39273;-79
2022/12/27 14:56:18;;;;;;;15.47;5.50;;;7.80;99.90;;;;;;4946252;28;47126;-80
2022/12/27 14:59:19;;;;;;;16.10;4.93;;;7.80;99.90;;;;;;4952581;28;48629;-80
2022/12/27 15:02:04;;;;;;;20.90;6.53;;;7.80;99.90;;;;;;4914592;28;48547;-80
2022/12/27 15:04:52;;;;;;;18.20;6.40;;;7.80;99.90;;;;;;4944490;28;47340;-80
2022/12/27 15:07:46;;;;;;;12.90;4.73;;;7.80;99.90;;;;;;4930809;28;39166;-80
2022/12/27 15:10:47;;;;;;;14.57;5.17;;;7.80;99.90;;;;;;4933101;28;38292;-80
2022/12/27 15:13:17;;;;;;;15.77;4.83;;;7.80;99.90;;;;;;4954907;28;37295;-80